sensor_id;sensor_type;location;lat;lon;timestamp;temperature;humidity
35258;DHT22;21385;50.878;8.050;2022-10-29T00:01:31;14.50;99.90
35258;DHT22;21385;50.878;8.050;2022-10-29T00:03:57;14.40;99.90
35258;DHT22;21385;50.878;8.050;2022-10-29T00:06:22;14.50;99.90
35258;DHT22;21385;50.878;8.050;2022-10-29T00:08:48;14.50;99.90
35258;DHT22;21385;50.878;8.050;2022-10-29T00:11:17;14.40;99.90
35258;DHT22;21385;50.878;8.050;2022-10-29T00:13:43;14.40;99.90
35258;DHT22;21385;50.878;8.050;2022-10-29T00:16:17;14.40;99.90
35258;DHT22;21385;50.878;8.050;2022-10-29T00:18:43;14.40;99.90
35258;DHT22;21385;50.878;8.050;2022-10-29T00:21:12;14.40;99.90
35258;DHT22;21385;50.878;8.050;2022-10-29T00:23:38;14.30;99.90
35258;DHT22;21385;50.878;8.050;2022-10-29T00:26:04;14.30;99.90
35258;DHT22;21385;50.878;8.050;2022-10-29T00:28:30;14.30;99.90
35258;DHT22;21385;50.878;8.050;2022-10-29T00:30:56;14.30;99.90
35258;DHT22;21385;50.878;8.050;2022-10-29T00:33:22;14.30;99.90
35258;DHT22;21385;50.878;8.050;2022-10-29T00:36:02;14.20;99.90
35258;DHT22;21385;50.878;8.050;2022-10-29T00:38:31;14.20;99.90
35258;DHT22;21385;50.878;8.050;2022-10-29T00:40:57;14.20;99.90
35258;DHT22;21385;50.878;8.050;2022-10-29T00:43:24;14.20;99.90
35258;DHT22;21385;50.878;8.050;2022-10-29T00:46:20;14.20;99.90
35258;DHT22;21385;50.878;8.050;2022-10-29T00:48:51;14.20;99.90
35258;DHT22;21385;50.878;8.050;2022-10-29T00:51:18;14.20;99.90
35258;DHT22;21385;50.878;8.050;2022-10-29T00:53:49;14.20;99.90
35258;DHT22;21385;50.878;8.050;2022-10-29T00:56:16;14.20;99.90
35258;DHT22;21385;50.878;8.050;2022-10-29T00:58:43;14.10;99.90
35258;DHT22;21385;50.878;8.050;2022-10-29T01:01:09;14.10;99.90
35258;DHT22;21385;50.878;8.050;2022-10-29T01:03:34;14.10;99.90
35258;DHT22;21385;50.878;8.050;2022-10-29T01:06:01;14.00;99.90
35258;DHT22;21385;50.878;8.050;2022-10-29T01:08:27;13.90;99.90
35258;DHT22;21385;50.878;8.050;2022-10-29T01:11:19;13.90;99.90
35258;DHT22;21385;50.878;8.050;2022-10-29T01:14:05;13.90;99.90
35258;DHT22;21385;50.878;8.050;2022-10-29T01:16:49;13.90;99.90
35258;DHT22;21385;50.878;8.050;2022-10-29T01:22:08;13.90;99.90
35258;DHT22;21385;50.878;8.050;2022-10-29T01:43:43;13.80;99.90
35258;DHT22;21385;50.878;8.050;2022-10-29T01:46:37;13.80;99.90
35258;DHT22;21385;50.878;8.050;2022-10-29T01:49:09;13.70;99.90
35258;DHT22;21385;50.878;8.050;2022-10-29T01:54:07;13.70;99.90
35258;DHT22;21385;50.878;8.050;2022-10-29T01:59:02;13.70;99.90
35258;DHT22;21385;50.878;8.050;2022-10-29T02:01:33;13.60;99.90
35258;DHT22;21385;50.878;8.050;2022-10-29T02:07:18;13.50;99.90
35258;DHT22;21385;50.878;8.050;2022-10-29T02:10:01;13.50;99.90
35258;DHT22;21385;50.878;8.050;2022-10-29T02:12:39;13.50;99.90
35258;DHT22;21385;50.878;8.050;2022-10-29T02:15:13;13.50;99.90
35258;DHT22;21385;50.878;8.050;2022-10-29T02:17:42;13.50;99.90
35258;DHT22;21385;50.878;8.050;2022-10-29T02:20:10;13.50;99.90
35258;DHT22;21385;50.878;8.050;2022-10-29T02:22:36;13.50;99.90
35258;DHT22;21385;50.878;8.050;2022-10-29T02:25:03;13.40;99.90
35258;DHT22;21385;50.878;8.050;2022-10-29T02:27:29;13.40;99.90
35258;DHT22;21385;50.878;8.050;2022-10-29T02:29:54;13.40;99.90
35258;DHT22;21385;50.878;8.050;2022-10-29T02:32:20;13.40;99.90
35258;DHT22;21385;50.878;8.050;2022-10-29T02:34:45;13.30;99.90
35258;DHT22;21385;50.878;8.050;2022-10-29T02:37:11;13.30;99.90
35258;DHT22;21385;50.878;8.050;2022-10-29T02:39:36;13.30;99.90
35258;DHT22;21385;50.878;8.050;2022-10-29T02:42:02;13.30;99.90
35258;DHT22;21385;50.878;8.050;2022-10-29T02:44:28;13.20;99.90
35258;DHT22;21385;50.878;8.050;2022-10-29T02:46:53;13.20;99.90
35258;DHT22;21385;50.878;8.050;2022-10-29T02:49:19;13.20;99.90
35258;DHT22;21385;50.878;8.050;2022-10-29T02:51:44;13.20;99.90
35258;DHT22;21385;50.878;8.050;2022-10-29T02:54:10;13.10;99.90
35258;DHT22;21385;50.878;8.050;2022-10-29T02:56:35;13.10;99.90
35258;DHT22;21385;50.878;8.050;2022-10-29T02:59:01;13.10;99.90
35258;DHT22;21385;50.878;8.050;2022-10-29T03:01:27;13.10;99.90
35258;DHT22;21385;50.878;8.050;2022-10-29T03:03:52;13.20;99.90
35258;DHT22;21385;50.878;8.050;2022-10-29T03:06:19;13.20;99.90
35258;DHT22;21385;50.878;8.050;2022-10-29T03:08:44;13.10;99.90
35258;DHT22;21385;50.878;8.050;2022-10-29T03:11:10;13.10;99.90
35258;DHT22;21385;50.878;8.050;2022-10-29T03:13:36;13.00;99.90
35258;DHT22;21385;50.878;8.050;2022-10-29T03:16:02;13.00;99.90
35258;DHT22;21385;50.878;8.050;2022-10-29T03:20:53;12.90;99.90
35258;DHT22;21385;50.878;8.050;2022-10-29T03:23:19;12.90;99.90
35258;DHT22;21385;50.878;8.050;2022-10-29T03:25:51;12.80;99.90
35258;DHT22;21385;50.878;8.050;2022-10-29T03:28:18;12.80;99.90
35258;DHT22;21385;50.878;8.050;2022-10-29T03:30:44;12.80;99.90
35258;DHT22;21385;50.878;8.050;2022-10-29T03:33:09;12.80;99.90
35258;DHT22;21385;50.878;8.050;2022-10-29T03:35:35;12.80;99.90
35258;DHT22;21385;50.878;8.050;2022-10-29T03:38:00;12.80;99.90
35258;DHT22;21385;50.878;8.050;2022-10-29T03:40:26;12.80;99.90
35258;DHT22;21385;50.878;8.050;2022-10-29T03:45:17;12.80;99.90
35258;DHT22;21385;50.878;8.050;2022-10-29T03:47:43;12.90;99.90
35258;DHT22;21385;50.878;8.050;2022-10-29T03:50:08;12.90;99.90
35258;DHT22;21385;50.878;8.050;2022-10-29T03:52:35;12.80;99.90
35258;DHT22;21385;50.878;8.050;2022-10-29T03:55:00;12.80;99.90
35258;DHT22;21385;50.878;8.050;2022-10-29T03:57:26;12.90;99.90
35258;DHT22;21385;50.878;8.050;2022-10-29T03:59:51;12.90;99.90
35258;DHT22;21385;50.878;8.050;2022-10-29T04:02:17;12.90;99.90
35258;DHT22;21385;50.878;8.050;2022-10-29T04:04:42;12.90;99.90
35258;DHT22;21385;50.878;8.050;2022-10-29T04:07:08;12.80;99.90
35258;DHT22;21385;50.878;8.050;2022-10-29T04:09:34;12.80;99.90
35258;DHT22;21385;50.878;8.050;2022-10-29T04:11:59;12.80;99.90
35258;DHT22;21385;50.878;8.050;2022-10-29T04:14:25;12.80;99.90
35258;DHT22;21385;50.878;8.050;2022-10-29T04:16:51;12.80;99.90
35258;DHT22;21385;50.878;8.050;2022-10-29T04:19:16;12.80;99.90
35258;DHT22;21385;50.878;8.050;2022-10-29T04:21:42;12.80;99.90
35258;DHT22;21385;50.878;8.050;2022-10-29T04:24:07;12.80;99.90
35258;DHT22;21385;50.878;8.050;2022-10-29T04:26:33;12.70;99.90
35258;DHT22;21385;50.878;8.050;2022-10-29T04:28:58;12.70;99.90
35258;DHT22;21385;50.878;8.050;2022-10-29T04:31:27;12.80;99.90
35258;DHT22;21385;50.878;8.050;2022-10-29T04:33:52;12.80;99.90
35258;DHT22;21385;50.878;8.050;2022-10-29T04:38:44;12.70;99.90
35258;DHT22;21385;50.878;8.050;2022-10-29T04:41:10;12.60;99.90
35258;DHT22;21385;50.878;8.050;2022-10-29T04:46:02;12.60;99.90
35258;DHT22;21385;50.878;8.050;2022-10-29T04:48:28;12.60;99.90
35258;DHT22;21385;50.878;8.050;2022-10-29T04:50:53;12.60;99.90
35258;DHT22;21385;50.878;8.050;2022-10-29T04:53:19;12.60;99.90
35258;DHT22;21385;50.878;8.050;2022-10-29T04:55:45;12.60;99.90
35258;DHT22;21385;50.878;8.050;2022-10-29T04:58:14;12.60;99.90
35258;DHT22;21385;50.878;8.050;2022-10-29T05:00:40;12.60;99.90
35258;DHT22;21385;50.878;8.050;2022-10-29T05:03:05;12.60;99.90
35258;DHT22;21385;50.878;8.050;2022-10-29T05:05:31;12.60;99.90
35258;DHT22;21385;50.878;8.050;2022-10-29T05:08:00;12.70;99.90
35258;DHT22;21385;50.878;8.050;2022-10-29T05:10:31;12.70;99.90
35258;DHT22;21385;50.878;8.050;2022-10-29T05:13:03;12.70;99.90
35258;DHT22;21385;50.878;8.050;2022-10-29T05:15:29;12.70;99.90
35258;DHT22;21385;50.878;8.050;2022-10-29T05:17:55;12.70;99.90
35258;DHT22;21385;50.878;8.050;2022-10-29T05:20:22;12.70;99.90
35258;DHT22;21385;50.878;8.050;2022-10-29T05:22:48;12.70;99.90
35258;DHT22;21385;50.878;8.050;2022-10-29T05:25:14;12.70;99.90
35258;DHT22;21385;50.878;8.050;2022-10-29T05:27:40;12.70;99.90
35258;DHT22;21385;50.878;8.050;2022-10-29T05:30:06;12.70;99.90
35258;DHT22;21385;50.878;8.050;2022-10-29T05:32:32;12.70;99.90
35258;DHT22;21385;50.878;8.050;2022-10-29T05:34:57;12.70;99.90
35258;DHT22;21385;50.878;8.050;2022-10-29T05:37:23;12.60;99.90
35258;DHT22;21385;50.878;8.050;2022-10-29T05:39:52;12.60;99.90
35258;DHT22;21385;50.878;8.050;2022-10-29T05:44:44;12.60;99.90
35258;DHT22;21385;50.878;8.050;2022-10-29T05:47:09;12.60;99.90
35258;DHT22;21385;50.878;8.050;2022-10-29T05:54:27;12.50;99.90
35258;DHT22;21385;50.878;8.050;2022-10-29T05:59:18;12.50;99.90
35258;DHT22;21385;50.878;8.050;2022-10-29T06:01:44;12.60;99.90
35258;DHT22;21385;50.878;8.050;2022-10-29T06:04:09;12.60;99.90
35258;DHT22;21385;50.878;8.050;2022-10-29T06:06:35;12.60;99.90
35258;DHT22;21385;50.878;8.050;2022-10-29T06:09:01;12.60;99.90
35258;DHT22;21385;50.878;8.050;2022-10-29T06:11:26;12.60;99.90
35258;DHT22;21385;50.878;8.050;2022-10-29T06:13:55;12.60;99.90
35258;DHT22;21385;50.878;8.050;2022-10-29T06:16:21;12.70;99.90
35258;DHT22;21385;50.878;8.050;2022-10-29T06:18:47;12.70;99.90
35258;DHT22;21385;50.878;8.050;2022-10-29T06:21:13;12.70;99.90
35258;DHT22;21385;50.878;8.050;2022-10-29T06:23:38;12.70;99.90
35258;DHT22;21385;50.878;8.050;2022-10-29T06:26:04;12.70;99.90
35258;DHT22;21385;50.878;8.050;2022-10-29T06:28:29;12.70;99.90
35258;DHT22;21385;50.878;8.050;2022-10-29T06:30:55;12.70;99.90
35258;DHT22;21385;50.878;8.050;2022-10-29T06:33:20;12.70;99.90
35258;DHT22;21385;50.878;8.050;2022-10-29T06:35:46;12.70;99.90
35258;DHT22;21385;50.878;8.050;2022-10-29T06:38:12;12.70;99.90
35258;DHT22;21385;50.878;8.050;2022-10-29T06:40:39;12.70;99.90
35258;DHT22;21385;50.878;8.050;2022-10-29T06:43:07;12.70;99.90
35258;DHT22;21385;50.878;8.050;2022-10-29T06:45:34;12.70;99.90
35258;DHT22;21385;50.878;8.050;2022-10-29T06:47:59;12.80;99.90
35258;DHT22;21385;50.878;8.050;2022-10-29T06:50:26;12.80;99.90
35258;DHT22;21385;50.878;8.050;2022-10-29T06:53:03;12.80;99.90
35258;DHT22;21385;50.878;8.050;2022-10-29T06:55:29;12.80;99.90
35258;DHT22;21385;50.878;8.050;2022-10-29T06:57:59;12.80;99.90
35258;DHT22;21385;50.878;8.050;2022-10-29T07:00:26;12.90;99.90
35258;DHT22;21385;50.878;8.050;2022-10-29T07:02:52;12.90;99.90
35258;DHT22;21385;50.878;8.050;2022-10-29T07:05:18;12.90;99.90
35258;DHT22;21385;50.878;8.050;2022-10-29T07:07:43;12.90;99.90
35258;DHT22;21385;50.878;8.050;2022-10-29T07:10:09;12.90;99.90
35258;DHT22;21385;50.878;8.050;2022-10-29T07:12:41;13.00;99.90
35258;DHT22;21385;50.878;8.050;2022-10-29T07:15:08;13.00;99.90
35258;DHT22;21385;50.878;8.050;2022-10-29T07:17:34;13.10;99.90
35258;DHT22;21385;50.878;8.050;2022-10-29T07:19:59;13.10;99.90
35258;DHT22;21385;50.878;8.050;2022-10-29T07:22:25;13.20;99.90
35258;DHT22;21385;50.878;8.050;2022-10-29T07:24:50;13.20;99.90
35258;DHT22;21385;50.878;8.050;2022-10-29T07:27:16;13.30;99.90
35258;DHT22;21385;50.878;8.050;2022-10-29T07:29:41;13.30;99.90
35258;DHT22;21385;50.878;8.050;2022-10-29T07:32:07;13.30;99.90
35258;DHT22;21385;50.878;8.050;2022-10-29T07:34:33;13.40;99.90
35258;DHT22;21385;50.878;8.050;2022-10-29T07:36:58;13.40;99.90
35258;DHT22;21385;50.878;8.050;2022-10-29T07:39:24;13.50;99.90
35258;DHT22;21385;50.878;8.050;2022-10-29T07:41:49;13.40;99.90
35258;DHT22;21385;50.878;8.050;2022-10-29T07:44:15;13.40;99.90
35258;DHT22;21385;50.878;8.050;2022-10-29T07:46:40;13.40;99.90
35258;DHT22;21385;50.878;8.050;2022-10-29T07:49:06;13.40;99.90
35258;DHT22;21385;50.878;8.050;2022-10-29T07:51:31;13.50;99.90
35258;DHT22;21385;50.878;8.050;2022-10-29T07:53:57;13.50;99.90
35258;DHT22;21385;50.878;8.050;2022-10-29T07:56:22;13.50;99.90
35258;DHT22;21385;50.878;8.050;2022-10-29T07:58:48;13.60;99.90
35258;DHT22;21385;50.878;8.050;2022-10-29T08:01:13;13.70;99.90
35258;DHT22;21385;50.878;8.050;2022-10-29T08:03:39;13.70;99.90
35258;DHT22;21385;50.878;8.050;2022-10-29T08:06:05;13.70;99.90
35258;DHT22;21385;50.878;8.050;2022-10-29T08:08:30;13.80;99.90
35258;DHT22;21385;50.878;8.050;2022-10-29T08:11:00;13.80;99.90
35258;DHT22;21385;50.878;8.050;2022-10-29T08:13:26;13.80;99.90
35258;DHT22;21385;50.878;8.050;2022-10-29T08:15:52;13.90;99.90
35258;DHT22;21385;50.878;8.050;2022-10-29T08:18:17;13.90;99.90
35258;DHT22;21385;50.878;8.050;2022-10-29T08:20:43;13.90;99.90
35258;DHT22;21385;50.878;8.050;2022-10-29T08:23:09;13.90;99.90
35258;DHT22;21385;50.878;8.050;2022-10-29T08:25:35;14.00;99.90
35258;DHT22;21385;50.878;8.050;2022-10-29T08:28:06;14.00;99.90
35258;DHT22;21385;50.878;8.050;2022-10-29T08:30:32;14.00;99.90
35258;DHT22;21385;50.878;8.050;2022-10-29T08:32:58;14.00;99.90
35258;DHT22;21385;50.878;8.050;2022-10-29T08:35:24;14.00;99.90
35258;DHT22;21385;50.878;8.050;2022-10-29T08:37:50;14.10;99.90
35258;DHT22;21385;50.878;8.050;2022-10-29T08:45:48;14.30;99.90
35258;DHT22;21385;50.878;8.050;2022-10-29T08:53:48;14.50;99.90
35258;DHT22;21385;50.878;8.050;2022-10-29T08:56:29;14.60;99.90
35258;DHT22;21385;50.878;8.050;2022-10-29T09:01:35;14.90;99.90
35258;DHT22;21385;50.878;8.050;2022-10-29T09:04:02;14.90;99.90
35258;DHT22;21385;50.878;8.050;2022-10-29T09:06:59;15.00;99.90
35258;DHT22;21385;50.878;8.050;2022-10-29T09:09:45;15.10;99.90
35258;DHT22;21385;50.878;8.050;2022-10-29T09:15:46;15.30;99.90
35258;DHT22;21385;50.878;8.050;2022-10-29T09:18:49;15.40;99.90
35258;DHT22;21385;50.878;8.050;2022-10-29T09:24:12;15.60;99.90
35258;DHT22;21385;50.878;8.050;2022-10-29T09:26:58;15.60;99.90
35258;DHT22;21385;50.878;8.050;2022-10-29T09:32:39;15.80;99.90
35258;DHT22;21385;50.878;8.050;2022-10-29T09:35:14;16.00;99.90
35258;DHT22;21385;50.878;8.050;2022-10-29T09:38:01;16.20;99.90
35258;DHT22;21385;50.878;8.050;2022-10-29T09:40:40;16.40;99.90
35258;DHT22;21385;50.878;8.050;2022-10-29T09:46:00;16.90;99.90
35258;DHT22;21385;50.878;8.050;2022-10-29T09:53:46;17.40;99.90
35258;DHT22;21385;50.878;8.050;2022-10-29T09:56:11;17.40;99.90
35258;DHT22;21385;50.878;8.050;2022-10-29T09:58:41;17.50;99.90
35258;DHT22;21385;50.878;8.050;2022-10-29T10:01:08;17.50;99.90
35258;DHT22;21385;50.878;8.050;2022-10-29T10:03:40;17.70;99.90
35258;DHT22;21385;50.878;8.050;2022-10-29T10:06:11;17.70;99.90
35258;DHT22;21385;50.878;8.050;2022-10-29T10:08:59;17.80;99.90
35258;DHT22;21385;50.878;8.050;2022-10-29T10:11:50;18.00;99.90
35258;DHT22;21385;50.878;8.050;2022-10-29T10:14:19;18.10;99.90
35258;DHT22;21385;50.878;8.050;2022-10-29T10:19:44;19.00;99.90
35258;DHT22;21385;50.878;8.050;2022-10-29T10:22:19;19.20;99.90
35258;DHT22;21385;50.878;8.050;2022-10-29T10:24:45;19.30;99.90
35258;DHT22;21385;50.878;8.050;2022-10-29T10:29:43;19.50;99.90
35258;DHT22;21385;50.878;8.050;2022-10-29T10:32:14;19.50;99.90
35258;DHT22;21385;50.878;8.050;2022-10-29T10:34:40;19.60;99.90
35258;DHT22;21385;50.878;8.050;2022-10-29T10:39:44;19.70;99.90
35258;DHT22;21385;50.878;8.050;2022-10-29T10:44:56;19.80;99.90
35258;DHT22;21385;50.878;8.050;2022-10-29T10:47:27;20.10;99.90
35258;DHT22;21385;50.878;8.050;2022-10-29T10:49:53;20.30;99.90
35258;DHT22;21385;50.878;8.050;2022-10-29T10:52:33;20.50;99.90
35258;DHT22;21385;50.878;8.050;2022-10-29T10:55:06;20.70;99.90
35258;DHT22;21385;50.878;8.050;2022-10-29T10:57:39;20.90;99.90
35258;DHT22;21385;50.878;8.050;2022-10-29T11:02:48;21.40;99.90
35258;DHT22;21385;50.878;8.050;2022-10-29T11:05:42;21.70;99.90
35258;DHT22;21385;50.878;8.050;2022-10-29T11:10:38;21.90;99.90
35258;DHT22;21385;50.878;8.050;2022-10-29T11:13:09;21.90;99.90
35258;DHT22;21385;50.878;8.050;2022-10-29T11:15:46;22.00;99.90
35258;DHT22;21385;50.878;8.050;2022-10-29T11:18:17;22.00;99.90
35258;DHT22;21385;50.878;8.050;2022-10-29T11:23:42;22.20;99.90
35258;DHT22;21385;50.878;8.050;2022-10-29T11:26:18;22.20;99.90
35258;DHT22;21385;50.878;8.050;2022-10-29T11:28:54;22.30;99.90
35258;DHT22;21385;50.878;8.050;2022-10-29T11:34:32;22.40;99.90
35258;DHT22;21385;50.878;8.050;2022-10-29T11:39:58;22.60;99.90
35258;DHT22;21385;50.878;8.050;2022-10-29T11:42:24;22.70;99.90
35258;DHT22;21385;50.878;8.050;2022-10-29T11:44:50;22.70;99.90
35258;DHT22;21385;50.878;8.050;2022-10-29T11:47:29;22.70;99.90
35258;DHT22;21385;50.878;8.050;2022-10-29T11:50:10;22.70;99.90
35258;DHT22;21385;50.878;8.050;2022-10-29T11:58:39;22.70;99.90
35258;DHT22;21385;50.878;8.050;2022-10-29T12:01:13;22.70;99.90
35258;DHT22;21385;50.878;8.050;2022-10-29T12:03:49;22.70;99.90
35258;DHT22;21385;50.878;8.050;2022-10-29T12:09:28;22.70;99.90
35258;DHT22;21385;50.878;8.050;2022-10-29T12:12:19;22.60;99.90
35258;DHT22;21385;50.878;8.050;2022-10-29T12:14:59;22.70;99.90
35258;DHT22;21385;50.878;8.050;2022-10-29T12:17:32;22.70;99.90
35258;DHT22;21385;50.878;8.050;2022-10-29T12:22:39;22.70;99.90
35258;DHT22;21385;50.878;8.050;2022-10-29T12:33:49;22.90;99.90
35258;DHT22;21385;50.878;8.050;2022-10-29T12:39:00;23.00;99.90
35258;DHT22;21385;50.878;8.050;2022-10-29T12:41:46;23.10;99.90
35258;DHT22;21385;50.878;8.050;2022-10-29T12:50:00;23.40;99.90
35258;DHT22;21385;50.878;8.050;2022-10-29T12:55:35;23.70;99.90
35258;DHT22;21385;50.878;8.050;2022-10-29T13:01:05;24.00;99.90
35258;DHT22;21385;50.878;8.050;2022-10-29T13:11:51;25.10;99.90
35258;DHT22;21385;50.878;8.050;2022-10-29T13:14:25;25.30;99.90
35258;DHT22;21385;50.878;8.050;2022-10-29T13:16:52;25.50;99.40
35258;DHT22;21385;50.878;8.050;2022-10-29T13:19:41;25.60;99.00
35258;DHT22;21385;50.878;8.050;2022-10-29T13:24:40;25.80;98.90
35258;DHT22;21385;50.878;8.050;2022-10-29T13:32:05;25.90;97.90
35258;DHT22;21385;50.878;8.050;2022-10-29T13:37:35;25.70;98.40
35258;DHT22;21385;50.878;8.050;2022-10-29T13:42:56;25.50;98.20
35258;DHT22;21385;50.878;8.050;2022-10-29T13:45:22;25.40;98.40
35258;DHT22;21385;50.878;8.050;2022-10-29T13:47:48;25.30;98.60
35258;DHT22;21385;50.878;8.050;2022-10-29T13:50:19;25.10;98.70
35258;DHT22;21385;50.878;8.050;2022-10-29T13:52:50;25.00;98.90
35258;DHT22;21385;50.878;8.050;2022-10-29T13:55:18;24.90;99.20
35258;DHT22;21385;50.878;8.050;2022-10-29T13:58:08;24.90;99.50
35258;DHT22;21385;50.878;8.050;2022-10-29T14:00:37;24.70;99.50
35258;DHT22;21385;50.878;8.050;2022-10-29T14:03:15;24.70;99.90
35258;DHT22;21385;50.878;8.050;2022-10-29T14:05:55;24.70;99.90
35258;DHT22;21385;50.878;8.050;2022-10-29T14:10:57;24.60;99.90
35258;DHT22;21385;50.878;8.050;2022-10-29T14:13:41;24.50;99.90
35258;DHT22;21385;50.878;8.050;2022-10-29T14:16:12;24.60;99.90
35258;DHT22;21385;50.878;8.050;2022-10-29T14:18:49;24.50;99.90
35258;DHT22;21385;50.878;8.050;2022-10-29T14:28:53;24.00;99.90
35258;DHT22;21385;50.878;8.050;2022-10-29T14:31:24;24.00;99.90
35258;DHT22;21385;50.878;8.050;2022-10-29T14:36:38;23.70;99.90
35258;DHT22;21385;50.878;8.050;2022-10-29T14:39:44;23.70;99.90
35258;DHT22;21385;50.878;8.050;2022-10-29T14:42:17;23.60;99.90
35258;DHT22;21385;50.878;8.050;2022-10-29T14:44:50;23.60;99.90
35258;DHT22;21385;50.878;8.050;2022-10-29T14:49:55;23.50;99.90
35258;DHT22;21385;50.878;8.050;2022-10-29T14:52:28;23.50;99.90
35258;DHT22;21385;50.878;8.050;2022-10-29T14:54:58;23.60;99.90
35258;DHT22;21385;50.878;8.050;2022-10-29T14:57:28;23.70;99.90
35258;DHT22;21385;50.878;8.050;2022-10-29T15:00:00;23.70;99.90
35258;DHT22;21385;50.878;8.050;2022-10-29T15:02:37;23.60;99.90
35258;DHT22;21385;50.878;8.050;2022-10-29T15:07:48;23.50;99.90
35258;DHT22;21385;50.878;8.050;2022-10-29T15:10:20;23.40;99.90
35258;DHT22;21385;50.878;8.050;2022-10-29T15:12:48;23.30;99.90
35258;DHT22;21385;50.878;8.050;2022-10-29T15:18:02;23.20;99.90
35258;DHT22;21385;50.878;8.050;2022-10-29T15:20:34;23.20;99.90
35258;DHT22;21385;50.878;8.050;2022-10-29T15:23:01;23.10;99.90
35258;DHT22;21385;50.878;8.050;2022-10-29T15:25:31;23.00;99.90
35258;DHT22;21385;50.878;8.050;2022-10-29T15:30:33;22.80;99.90
35258;DHT22;21385;50.878;8.050;2022-10-29T15:37:53;22.50;99.90
35258;DHT22;21385;50.878;8.050;2022-10-29T15:40:21;22.30;99.90
35258;DHT22;21385;50.878;8.050;2022-10-29T15:42:47;22.20;99.90
35258;DHT22;21385;50.878;8.050;2022-10-29T15:45:14;22.10;99.90
35258;DHT22;21385;50.878;8.050;2022-10-29T15:47:41;21.90;99.90
35258;DHT22;21385;50.878;8.050;2022-10-29T15:50:10;21.80;99.90
35258;DHT22;21385;50.878;8.050;2022-10-29T15:52:38;21.60;99.90
35258;DHT22;21385;50.878;8.050;2022-10-29T15:55:28;21.50;99.90
35258;DHT22;21385;50.878;8.050;2022-10-29T15:58:02;21.40;99.90
35258;DHT22;21385;50.878;8.050;2022-10-29T16:00:29;21.20;99.90
35258;DHT22;21385;50.878;8.050;2022-10-29T16:03:01;21.00;99.90
35258;DHT22;21385;50.878;8.050;2022-10-29T16:05:30;21.00;99.90
35258;DHT22;21385;50.878;8.050;2022-10-29T16:08:00;21.00;99.90
35258;DHT22;21385;50.878;8.050;2022-10-29T16:10:27;21.10;99.90
35258;DHT22;21385;50.878;8.050;2022-10-29T16:12:52;21.10;99.90
35258;DHT22;21385;50.878;8.050;2022-10-29T16:15:19;21.00;99.90
35258;DHT22;21385;50.878;8.050;2022-10-29T16:17:45;20.90;99.90
35258;DHT22;21385;50.878;8.050;2022-10-29T16:20:16;20.80;99.90
35258;DHT22;21385;50.878;8.050;2022-10-29T16:22:43;20.70;99.90
35258;DHT22;21385;50.878;8.050;2022-10-29T16:25:20;20.70;99.90
35258;DHT22;21385;50.878;8.050;2022-10-29T16:27:53;20.60;99.90
35258;DHT22;21385;50.878;8.050;2022-10-29T16:30:19;20.60;99.90
35258;DHT22;21385;50.878;8.050;2022-10-29T16:32:46;20.50;99.90
35258;DHT22;21385;50.878;8.050;2022-10-29T16:35:18;20.50;99.90
35258;DHT22;21385;50.878;8.050;2022-10-29T16:37:44;20.40;99.90
35258;DHT22;21385;50.878;8.050;2022-10-29T16:40:10;20.40;99.90
35258;DHT22;21385;50.878;8.050;2022-10-29T16:42:36;20.40;99.90
35258;DHT22;21385;50.878;8.050;2022-10-29T16:45:03;20.40;99.90
35258;DHT22;21385;50.878;8.050;2022-10-29T16:47:29;20.40;99.90
35258;DHT22;21385;50.878;8.050;2022-10-29T16:49:55;20.40;99.90
35258;DHT22;21385;50.878;8.050;2022-10-29T16:52:20;20.40;99.90
35258;DHT22;21385;50.878;8.050;2022-10-29T16:54:46;20.40;99.90
35258;DHT22;21385;50.878;8.050;2022-10-29T16:57:11;20.50;99.90
35258;DHT22;21385;50.878;8.050;2022-10-29T16:59:37;20.50;99.90
35258;DHT22;21385;50.878;8.050;2022-10-29T17:02:03;20.50;99.90
35258;DHT22;21385;50.878;8.050;2022-10-29T17:04:28;20.50;99.90
35258;DHT22;21385;50.878;8.050;2022-10-29T17:06:54;20.50;99.90
35258;DHT22;21385;50.878;8.050;2022-10-29T17:09:19;20.60;99.90
35258;DHT22;21385;50.878;8.050;2022-10-29T17:11:47;20.50;99.90
35258;DHT22;21385;50.878;8.050;2022-10-29T17:14:13;20.50;99.90
35258;DHT22;21385;50.878;8.050;2022-10-29T17:16:38;20.60;99.90
35258;DHT22;21385;50.878;8.050;2022-10-29T17:19:04;20.60;99.90
35258;DHT22;21385;50.878;8.050;2022-10-29T17:21:30;20.60;99.90
35258;DHT22;21385;50.878;8.050;2022-10-29T17:23:55;20.50;99.90
35258;DHT22;21385;50.878;8.050;2022-10-29T17:26:21;20.40;99.90
35258;DHT22;21385;50.878;8.050;2022-10-29T17:28:47;20.30;99.90
35258;DHT22;21385;50.878;8.050;2022-10-29T17:31:12;20.20;99.90
35258;DHT22;21385;50.878;8.050;2022-10-29T17:33:38;20.10;99.90
35258;DHT22;21385;50.878;8.050;2022-10-29T17:36:06;19.90;99.90
35258;DHT22;21385;50.878;8.050;2022-10-29T17:38:32;19.80;99.90
35258;DHT22;21385;50.878;8.050;2022-10-29T17:40:58;19.70;99.90
35258;DHT22;21385;50.878;8.050;2022-10-29T17:43:23;19.50;99.90
35258;DHT22;21385;50.878;8.050;2022-10-29T17:45:49;19.50;99.90
35258;DHT22;21385;50.878;8.050;2022-10-29T17:48:16;19.30;99.90
35258;DHT22;21385;50.878;8.050;2022-10-29T17:50:50;19.20;99.90
35258;DHT22;21385;50.878;8.050;2022-10-29T17:53:15;19.20;99.90
35258;DHT22;21385;50.878;8.050;2022-10-29T17:55:41;19.10;99.90
35258;DHT22;21385;50.878;8.050;2022-10-29T17:58:06;19.10;99.90
35258;DHT22;21385;50.878;8.050;2022-10-29T18:00:32;19.00;99.90
35258;DHT22;21385;50.878;8.050;2022-10-29T18:02:57;18.90;99.90
35258;DHT22;21385;50.878;8.050;2022-10-29T18:05:23;18.90;99.90
35258;DHT22;21385;50.878;8.050;2022-10-29T18:07:48;18.80;99.90
35258;DHT22;21385;50.878;8.050;2022-10-29T18:10:14;19.00;99.90
35258;DHT22;21385;50.878;8.050;2022-10-29T18:12:41;19.20;99.90
35258;DHT22;21385;50.878;8.050;2022-10-29T18:15:07;19.40;99.90
35258;DHT22;21385;50.878;8.050;2022-10-29T18:17:33;19.70;99.90
35258;DHT22;21385;50.878;8.050;2022-10-29T18:19:59;19.90;99.90
35258;DHT22;21385;50.878;8.050;2022-10-29T18:22:24;20.00;99.90
35258;DHT22;21385;50.878;8.050;2022-10-29T18:24:50;20.20;99.90
35258;DHT22;21385;50.878;8.050;2022-10-29T18:27:15;20.10;99.90
35258;DHT22;21385;50.878;8.050;2022-10-29T18:29:44;19.90;99.90
35258;DHT22;21385;50.878;8.050;2022-10-29T18:32:10;19.70;99.90
35258;DHT22;21385;50.878;8.050;2022-10-29T18:41:53;19.30;99.90
35258;DHT22;21385;50.878;8.050;2022-10-29T18:44:18;19.30;99.90
35258;DHT22;21385;50.878;8.050;2022-10-29T18:46:44;19.30;99.90
35258;DHT22;21385;50.878;8.050;2022-10-29T18:49:10;19.20;99.90
35258;DHT22;21385;50.878;8.050;2022-10-29T18:51:37;19.20;99.90
35258;DHT22;21385;50.878;8.050;2022-10-29T18:54:03;19.30;99.90
35258;DHT22;21385;50.878;8.050;2022-10-29T18:56:29;19.40;99.90
35258;DHT22;21385;50.878;8.050;2022-10-29T18:58:57;19.40;99.90